createdAt,value
2018-09-19T00:00:48.636Z,44.62
2018-09-19T00:03:16.575Z,44.54
2018-09-19T00:05:44.197Z,44.44
2018-09-19T00:08:12.307Z,44.21
2018-09-19T00:10:40.204Z,44.11
2018-09-19T00:13:07.956Z,44.32
2018-09-19T00:15:35.774Z,43.77
2018-09-19T00:18:03.314Z,43.55
2018-09-19T00:20:31.220Z,44.46
2018-09-19T00:22:59.053Z,44.13
2018-09-19T00:25:26.949Z,43.64
2018-09-19T00:27:54.703Z,44.41
2018-09-19T00:30:22.530Z,44.10
2018-09-19T00:32:50.206Z,43.65
2018-09-19T00:35:17.981Z,44.38
2018-09-19T00:37:45.875Z,44.03
2018-09-19T00:40:13.850Z,44.27
2018-09-19T00:42:41.780Z,44.09
2018-09-19T00:45:09.605Z,44.19
2018-09-19T00:47:37.514Z,43.86
2018-09-19T00:50:05.553Z,44.29
2018-09-19T00:52:33.374Z,44.13
2018-09-19T00:55:01.075Z,44.21
2018-09-19T00:57:28.757Z,43.87
2018-09-19T00:59:56.589Z,44.49
2018-09-19T01:02:24.345Z,44.13
2018-09-19T01:04:51.596Z,44.21
2018-09-19T01:07:19.453Z,44.55
2018-09-19T01:09:47.569Z,43.74
2018-09-19T01:12:15.581Z,43.93
2018-09-19T01:14:43.526Z,44.53
2018-09-19T01:17:11.522Z,44.36
2018-09-19T01:19:39.582Z,43.84
2018-09-19T01:22:13.662Z,44.74
2018-09-19T01:24:41.522Z,43.92
2018-09-19T01:27:09.577Z,44.20
2018-09-19T01:29:37.581Z,44.22
2018-09-19T01:32:04.899Z,43.84
2018-09-19T01:34:32.854Z,43.76
2018-09-19T01:37:00.711Z,44.13
2018-09-19T01:39:28.954Z,44.29
2018-09-19T01:41:56.966Z,43.90
2018-09-19T01:44:24.874Z,44.39
2018-09-19T01:46:52.734Z,44.32
2018-09-19T01:49:20.603Z,43.93
2018-09-19T01:51:52.587Z,43.90
2018-09-19T01:54:20.616Z,44.10
2018-09-19T01:56:48.880Z,44.54
2018-09-19T01:59:16.794Z,44.00
2018-09-19T02:01:44.854Z,44.86
2018-09-19T02:04:12.730Z,44.68
2018-09-19T02:06:40.586Z,43.83
2018-09-19T02:09:10.239Z,44.04
2018-09-19T02:11:38.223Z,43.92
2018-09-19T02:14:06.518Z,44.72
2018-09-19T02:16:33.705Z,44.29
2018-09-19T02:19:01.762Z,44.40
2018-09-19T02:21:29.632Z,43.97
2018-09-19T02:23:57.903Z,43.83
2018-09-19T02:26:25.722Z,44.00
2018-09-19T02:28:53.578Z,44.89
2018-09-19T02:31:21.416Z,44.79
2018-09-19T02:33:49.245Z,44.22
2018-09-19T02:36:21.841Z,43.98
2018-09-19T02:38:51.014Z,44.70
2018-09-19T02:41:18.697Z,44.80
2018-09-19T02:43:46.888Z,44.49
2018-09-19T02:46:14.598Z,44.05
2018-09-19T02:48:42.765Z,44.45
2018-09-19T02:51:11.505Z,44.72
2018-09-19T02:53:39.410Z,44.68
2018-09-19T02:56:07.380Z,44.26
2018-09-19T02:58:35.227Z,44.25
2018-09-19T03:01:03.021Z,45.04
2018-09-19T03:03:30.393Z,44.81
2018-09-19T03:05:58.329Z,44.08
2018-09-19T03:08:26.050Z,44.20
2018-09-19T03:10:53.894Z,44.00
2018-09-19T03:13:22.018Z,43.90
2018-09-19T03:15:49.442Z,43.96
2018-09-19T03:18:17.207Z,44.21
2018-09-19T03:20:45.225Z,44.13
2018-09-19T03:23:12.970Z,44.39
2018-09-19T03:25:40.833Z,44.50
2018-09-19T03:28:09.037Z,44.54
2018-09-19T03:30:37.158Z,44.05
2018-09-19T03:33:05.362Z,44.45
2018-09-19T03:35:34.079Z,44.77
2018-09-19T03:38:02.715Z,44.03
2018-09-19T03:40:31.031Z,44.04
2018-09-19T03:42:58.995Z,44.60
2018-09-19T03:45:26.782Z,44.54
2018-09-19T03:47:54.588Z,44.83
2018-09-19T03:50:22.411Z,44.79
2018-09-19T03:52:50.211Z,44.74
2018-09-19T03:55:17.930Z,44.02
2018-09-19T03:57:46.027Z,44.92
2018-09-19T04:00:13.909Z,44.90
2018-09-19T04:02:41.751Z,44.34
2018-09-19T04:05:09.716Z,44.11
2018-09-19T04:07:37.621Z,44.82
2018-09-19T04:10:05.626Z,44.99
2018-09-19T04:12:33.457Z,44.10
2018-09-19T04:15:01.199Z,44.94
2018-09-19T04:17:29.193Z,44.69
2018-09-19T04:19:56.765Z,44.78
2018-09-19T04:22:24.554Z,44.59
2018-09-19T04:24:52.496Z,44.07
2018-09-19T04:27:20.184Z,44.95
2018-09-19T04:29:47.917Z,44.39
2018-09-19T04:32:15.813Z,44.17
2018-09-19T04:34:43.550Z,45.01
2018-09-19T04:37:11.311Z,44.71
2018-09-19T04:39:39.047Z,44.92
2018-09-19T04:42:07.222Z,44.48
2018-09-19T04:44:34.998Z,44.11
2018-09-19T04:47:02.977Z,45.00
2018-09-19T04:49:30.685Z,44.58
2018-09-19T04:51:58.521Z,44.88
2018-09-19T04:54:26.498Z,44.85
2018-09-19T04:56:54.194Z,44.40
2018-09-19T04:59:21.975Z,44.27
2018-09-19T05:01:49.200Z,44.60
2018-09-19T05:04:17.669Z,44.02
2018-09-19T05:06:45.657Z,43.97
2018-09-19T05:09:13.562Z,44.26
2018-09-19T05:11:41.471Z,44.08
2018-09-19T05:14:08.754Z,44.26
2018-09-19T05:16:37.024Z,44.60
2018-09-19T05:19:04.400Z,44.33
2018-09-19T05:21:32.220Z,44.27
2018-09-19T05:23:59.937Z,44.65
2018-09-19T05:26:27.877Z,44.63
2018-09-19T05:28:55.626Z,44.88
2018-09-19T05:31:23.552Z,44.91
2018-09-19T05:33:51.214Z,44.16
2018-09-19T05:36:19.009Z,44.26
2018-09-19T05:38:46.846Z,44.44
2018-09-19T05:41:14.730Z,44.96
2018-09-19T05:43:42.596Z,44.40
2018-09-19T05:46:10.574Z,44.76
2018-09-19T05:48:38.526Z,44.13
2018-09-19T05:51:06.211Z,44.08
2018-09-19T05:53:33.505Z,44.09
2018-09-19T05:56:01.376Z,44.85
2018-09-19T05:58:29.055Z,44.86
2018-09-19T06:00:56.937Z,44.15
2018-09-19T06:03:25.475Z,44.00
2018-09-19T06:05:53.220Z,44.70
2018-09-19T06:08:20.916Z,43.95
2018-09-19T06:10:48.718Z,44.87
2018-09-19T06:13:16.574Z,44.04
2018-09-19T06:15:44.221Z,44.76
2018-09-19T06:18:11.897Z,44.80
2018-09-19T06:20:39.673Z,44.55
2018-09-19T06:23:07.468Z,44.73
2018-09-19T06:25:35.354Z,44.02
2018-09-19T06:28:03.033Z,44.10
2018-09-19T06:30:30.922Z,45.11
2018-09-19T06:32:58.807Z,44.33
2018-09-19T06:35:26.556Z,43.85
2018-09-19T06:37:54.425Z,44.43
2018-09-19T06:40:22.055Z,44.55
2018-09-19T06:42:49.864Z,44.06
2018-09-19T06:45:17.721Z,43.98
2018-09-19T06:47:45.588Z,43.78
2018-09-19T06:50:13.619Z,43.77
2018-09-19T06:52:41.199Z,43.76
2018-09-19T06:55:08.760Z,43.77
2018-09-19T06:57:36.598Z,43.56
2018-09-19T07:00:04.486Z,44.69
2018-09-19T07:02:32.191Z,44.01
2018-09-19T07:04:59.906Z,43.81
2018-09-19T07:07:27.911Z,44.49
2018-09-19T07:09:55.680Z,44.29
2018-09-19T07:12:23.369Z,44.23
2018-09-19T07:14:51.092Z,43.65
2018-09-19T07:17:18.935Z,43.93
2018-09-19T07:19:46.711Z,44.24
2018-09-19T07:22:14.510Z,44.52
2018-09-19T07:24:42.196Z,43.63
2018-09-19T07:27:10.049Z,43.71
2018-09-19T07:29:37.955Z,44.46
2018-09-19T07:32:05.870Z,44.18
2018-09-19T07:34:33.610Z,43.69
2018-09-19T07:37:01.555Z,43.99
2018-09-19T07:39:29.211Z,43.85
2018-09-19T07:41:56.763Z,44.06
2018-09-19T07:44:24.584Z,43.42
2018-09-19T07:46:52.193Z,44.47
2018-09-19T07:49:20.062Z,44.38
2018-09-19T07:51:47.977Z,43.60
2018-09-19T07:54:15.209Z,43.93
2018-09-19T07:56:43.240Z,44.21
2018-09-19T07:59:10.965Z,43.99
2018-09-19T08:01:38.929Z,43.54
2018-09-19T08:04:06.794Z,43.86
2018-09-19T08:06:34.189Z,43.85
2018-09-19T08:09:02.032Z,43.92
2018-09-19T08:11:29.385Z,43.94
2018-09-19T08:13:57.486Z,43.42
2018-09-19T08:16:25.215Z,43.65
2018-09-19T08:18:52.979Z,44.19
2018-09-19T08:21:20.308Z,43.87
2018-09-19T08:23:48.283Z,44.20
2018-09-19T08:26:16.055Z,43.44
2018-09-19T08:28:43.931Z,43.47
2018-09-19T08:31:11.749Z,44.11
2018-09-19T08:33:38.977Z,44.06
2018-09-19T08:36:06.678Z,43.60
2018-09-19T08:38:34.526Z,44.08
2018-09-19T08:41:02.534Z,43.91
2018-09-19T08:43:30.209Z,43.11
2018-09-19T08:45:57.960Z,43.73
2018-09-19T08:48:25.262Z,43.60
2018-09-19T08:50:53.331Z,43.43
2018-09-19T08:53:21.073Z,43.18
2018-09-19T08:55:48.834Z,43.02
2018-09-19T08:58:16.680Z,43.57
2018-09-19T09:00:44.635Z,43.93
2018-09-19T09:03:12.428Z,43.76
2018-09-19T09:05:40.204Z,43.38
2018-09-19T09:08:08.014Z,43.96
2018-09-19T09:10:36.360Z,43.34
2018-09-19T09:13:04.070Z,43.96
2018-09-19T09:15:31.791Z,43.34
2018-09-19T09:17:59.669Z,43.99
2018-09-19T09:20:27.479Z,43.84
2018-09-19T09:22:55.180Z,43.99
2018-09-19T09:27:47.197Z,43.90
2018-09-19T09:30:20.920Z,43.51
2018-09-19T09:32:48.695Z,43.98
2018-09-19T09:35:16.895Z,43.95
2018-09-19T09:37:44.976Z,43.90
2018-09-19T09:40:12.716Z,43.65
2018-09-19T09:42:40.617Z,43.45
2018-09-19T09:45:08.322Z,43.16
2018-09-19T09:47:35.529Z,43.65
2018-09-19T09:50:03.314Z,43.52
2018-09-19T09:52:31.254Z,43.42
2018-09-19T09:54:58.935Z,43.83
2018-09-19T09:57:26.679Z,43.17
2018-09-19T09:59:54.404Z,43.10
2018-09-19T10:02:22.237Z,43.71
2018-09-19T10:04:50.021Z,43.55
2018-09-19T10:07:17.935Z,43.00
2018-09-19T10:09:45.952Z,43.01
2018-09-19T10:12:13.895Z,42.92
2018-09-19T10:14:41.918Z,43.69
2018-09-19T10:17:09.690Z,43.84
2018-09-19T10:19:37.510Z,43.42
2018-09-19T10:22:05.458Z,43.77
2018-09-19T10:24:33.194Z,43.19
2018-09-19T10:28:53.185Z,42.75
2018-09-19T10:31:21.193Z,43.56
2018-09-19T10:33:48.998Z,42.96
2018-09-19T10:36:16.677Z,43.89
2018-09-19T10:38:44.561Z,43.39
2018-09-19T10:41:12.317Z,42.88
2018-09-19T10:43:39.566Z,43.35
2018-09-19T10:46:07.397Z,42.85
2018-09-19T10:48:35.218Z,42.85
2018-09-19T10:51:02.980Z,42.87
2018-09-19T10:53:30.969Z,43.52
2018-09-19T10:55:58.754Z,43.23
2018-09-19T10:58:27.436Z,43.07
2018-09-19T11:00:55.203Z,43.77
2018-09-19T11:03:24.309Z,42.87
2018-09-19T11:07:13.705Z,43.27
2018-09-19T11:09:41.461Z,42.83
2018-09-19T11:12:09.181Z,43.69
2018-09-19T11:14:37.029Z,43.34
2018-09-19T11:17:04.688Z,42.80
2018-09-19T11:19:32.314Z,43.74
2018-09-19T11:21:59.966Z,43.09
2018-09-19T11:24:27.866Z,42.86
2018-09-19T11:26:55.622Z,43.50
2018-09-19T11:29:23.462Z,43.13
2018-09-19T11:31:51.530Z,43.21
2018-09-19T11:34:19.390Z,43.23
2018-09-19T11:36:47.200Z,42.96
2018-09-19T11:39:15.026Z,42.89
2018-09-19T11:41:42.972Z,42.77
2018-09-19T11:44:10.585Z,43.22
2018-09-19T11:46:38.777Z,42.79
2018-09-19T11:49:06.910Z,42.77
2018-09-19T11:51:34.778Z,43.54
2018-09-19T11:54:02.850Z,42.85
2018-09-19T11:56:31.271Z,42.86
2018-09-19T11:58:58.993Z,43.76
2018-09-19T12:01:27.186Z,42.74
2018-09-19T12:03:55.059Z,43.16
2018-09-19T12:06:22.855Z,42.77
2018-09-19T12:08:50.686Z,42.65
2018-09-19T12:11:18.538Z,43.20
2018-09-19T12:13:46.225Z,43.63
2018-09-19T12:16:14.250Z,42.89
2018-09-19T12:18:41.518Z,42.71
2018-09-19T12:21:09.217Z,43.05
2018-09-19T12:23:37.229Z,43.39
2018-09-19T12:26:05.338Z,43.24
2018-09-19T12:28:33.197Z,43.11
2018-09-19T12:31:01.040Z,42.58
2018-09-19T12:33:28.958Z,42.82
2018-09-19T12:35:56.822Z,42.44
2018-09-19T12:38:24.636Z,42.89
2018-09-19T12:40:52.498Z,42.46
2018-09-19T12:43:21.005Z,43.04
2018-09-19T12:45:48.217Z,42.90
2018-09-19T12:48:15.971Z,43.16
2018-09-19T12:50:43.883Z,43.10
2018-09-19T12:53:11.717Z,42.71
2018-09-19T12:55:39.595Z,43.62
2018-09-19T12:58:07.417Z,43.52
2018-09-19T13:00:35.205Z,42.87
2018-09-19T13:03:02.932Z,43.38
2018-09-19T13:05:30.872Z,43.51
2018-09-19T13:07:58.470Z,43.49
2018-09-19T13:10:26.500Z,43.54
2018-09-19T13:12:54.197Z,42.91
2018-09-19T13:15:21.843Z,43.71
2018-09-19T13:17:50.201Z,42.82
2018-09-19T13:20:18.018Z,43.60
2018-09-19T13:22:45.930Z,43.20
2018-09-19T13:25:13.821Z,43.57
2018-09-19T13:27:41.603Z,42.60
2018-09-19T13:30:09.466Z,43.01
2018-09-19T13:32:37.335Z,43.76
2018-09-19T13:35:05.038Z,43.13
2018-09-19T13:37:32.849Z,43.54
2018-09-19T13:40:00.672Z,42.78
2018-09-19T13:42:29.077Z,43.41
2018-09-19T13:44:56.937Z,43.38
2018-09-19T13:47:31.844Z,43.10
2018-09-19T13:50:09.714Z,42.83
2018-09-19T13:52:37.570Z,42.68
2018-09-19T13:55:05.494Z,43.64
2018-09-19T13:57:33.518Z,43.27
2018-09-19T14:00:00.773Z,42.43
2018-09-19T14:02:28.601Z,42.35
2018-09-19T14:04:56.602Z,41.74
2018-09-19T14:07:24.167Z,41.89
2018-09-19T14:09:52.014Z,41.67
2018-09-19T14:12:20.282Z,41.85
2018-09-19T14:14:48.019Z,42.21
2018-09-19T14:17:15.874Z,41.67
2018-09-19T14:19:43.216Z,41.77
2018-09-19T14:22:10.963Z,41.66
2018-09-19T14:24:38.701Z,41.97
2018-09-19T14:27:06.682Z,41.64
2018-09-19T14:29:34.589Z,42.29
2018-09-19T14:32:02.638Z,42.14
2018-09-19T14:34:30.636Z,42.41
2018-09-19T14:39:34.651Z,41.67
2018-09-19T14:42:02.685Z,41.88
2018-09-19T14:44:30.534Z,42.20
2018-09-19T14:46:58.425Z,42.03
2018-09-19T14:49:26.198Z,42.18
2018-09-19T14:51:53.910Z,42.40
2018-09-19T14:54:21.712Z,42.04
2018-09-19T14:56:49.182Z,41.73
2018-09-19T14:59:16.972Z,41.28
2018-09-19T15:01:44.225Z,41.68
2018-09-19T15:04:12.182Z,41.43
2018-09-19T15:06:40.061Z,41.96
2018-09-19T15:09:09.712Z,41.58
2018-09-19T15:11:37.623Z,41.28
2018-09-19T15:14:05.578Z,42.04
2018-09-19T15:16:33.469Z,41.17
2018-09-19T15:19:00.765Z,42.14
2018-09-19T15:21:28.622Z,41.45
2018-09-19T15:23:56.510Z,41.30
2018-09-19T15:26:23.959Z,41.64
2018-09-19T15:28:51.794Z,41.83
2018-09-19T15:31:19.630Z,41.85
2018-09-19T15:33:47.310Z,41.95
2018-09-19T15:36:14.651Z,42.03
2018-09-19T15:38:42.542Z,42.27
2018-09-19T15:41:10.589Z,41.13
2018-09-19T15:43:38.525Z,41.31
2018-09-19T15:46:06.210Z,42.03
2018-09-19T15:48:34.062Z,41.52
2018-09-19T15:51:01.951Z,41.63
2018-09-19T15:53:30.881Z,41.93
2018-09-19T15:55:58.769Z,41.97
2018-09-19T15:58:26.651Z,41.89
2018-09-19T16:00:54.326Z,41.39
2018-09-19T16:03:23.011Z,42.27
2018-09-19T16:05:50.467Z,42.17
2018-09-19T16:08:18.586Z,42.14
2018-09-19T16:10:46.602Z,42.36
2018-09-19T16:13:14.535Z,42.37
2018-09-19T16:20:21.535Z,41.45
2018-09-19T16:22:49.441Z,42.55
2018-09-19T16:25:16.753Z,41.50
2018-09-19T16:27:44.602Z,41.82
2018-09-19T16:30:12.597Z,41.89
2018-09-19T16:32:39.855Z,42.10
2018-09-19T16:35:07.640Z,42.71
2018-09-19T16:37:35.477Z,42.66
2018-09-19T16:40:03.181Z,42.60
2018-09-19T16:42:30.936Z,43.06
2018-09-19T16:44:58.843Z,42.96
2018-09-19T16:47:26.668Z,42.42
2018-09-19T16:49:54.628Z,43.30
2018-09-19T16:52:22.665Z,43.32
2018-09-19T16:54:50.493Z,43.51
2018-09-19T16:57:17.766Z,43.29
2018-09-19T16:59:45.767Z,42.96
2018-09-19T17:02:13.640Z,43.75
2018-09-19T17:04:41.310Z,43.38
2018-09-19T17:07:09.304Z,43.04
2018-09-19T17:09:37.057Z,43.66
2018-09-19T17:12:04.910Z,42.89
2018-09-19T17:14:32.734Z,43.90
2018-09-19T17:17:00.718Z,43.77
2018-09-19T17:19:28.870Z,43.77
2018-09-19T17:21:56.633Z,43.39
2018-09-19T17:24:24.376Z,42.92
2018-09-19T17:26:51.588Z,43.23
2018-09-19T17:29:19.309Z,43.60
2018-09-19T17:31:47.058Z,42.77
2018-09-19T17:34:14.794Z,42.60
2018-09-19T17:36:42.585Z,43.59
2018-09-19T17:39:11.814Z,43.54
2018-09-19T17:41:39.593Z,42.90
2018-09-19T17:44:07.546Z,43.49
2018-09-19T17:46:35.419Z,43.68
2018-09-19T17:49:03.057Z,44.36
2018-09-19T17:51:30.866Z,44.57
2018-09-19T17:53:58.898Z,44.85
2018-09-19T17:56:26.766Z,44.71
2018-09-19T17:58:54.958Z,44.93
2018-09-19T18:01:22.698Z,45.10
2018-09-19T18:03:50.482Z,44.13
2018-09-19T18:06:18.471Z,44.86
2018-09-19T18:08:46.159Z,43.96
2018-09-19T18:11:13.428Z,44.76
2018-09-19T18:13:41.192Z,44.50
2018-09-19T18:16:08.810Z,44.53
2018-09-19T18:18:36.733Z,45.02
2018-09-19T18:21:04.537Z,44.25
2018-09-19T18:23:32.302Z,44.94
2018-09-19T18:26:00.159Z,43.95
2018-09-19T18:28:27.765Z,44.87
2018-09-19T18:30:55.606Z,44.54
2018-09-19T18:33:23.402Z,44.52
2018-09-19T18:35:50.582Z,44.50
2018-09-19T18:38:36.779Z,44.84
2018-09-19T18:41:05.045Z,44.54
2018-09-19T18:43:32.934Z,45.10
2018-09-19T18:46:00.666Z,44.48
2018-09-19T18:48:29.189Z,45.04
2018-09-19T18:50:56.821Z,45.30
2018-09-19T18:53:24.661Z,44.75
2018-09-19T18:55:51.867Z,45.42
2018-09-19T18:58:19.946Z,45.20
2018-09-19T19:00:47.553Z,45.36
2018-09-19T19:03:15.219Z,45.56
2018-09-19T19:05:42.926Z,44.69
2018-09-19T19:08:10.666Z,44.74
2018-09-19T19:10:38.558Z,45.61
2018-09-19T19:13:06.213Z,45.58
2018-09-19T19:15:33.918Z,45.52
2018-09-19T19:18:01.692Z,45.18
2018-09-19T19:20:29.581Z,44.96
2018-09-19T19:22:57.423Z,44.82
2018-09-19T19:25:25.670Z,45.32
2018-09-19T19:27:53.513Z,45.00
2018-09-19T19:30:21.300Z,45.16
2018-09-19T19:32:48.969Z,45.40
2018-09-19T19:35:16.424Z,45.28
2018-09-19T19:37:44.205Z,45.64
2018-09-19T19:40:11.841Z,46.02
2018-09-19T19:42:39.738Z,45.60
2018-09-19T19:45:07.530Z,46.05
2018-09-19T19:47:35.463Z,45.89
2018-09-19T19:50:03.578Z,45.85
2018-09-19T19:52:31.348Z,45.65
2018-09-19T19:54:59.053Z,45.61
2018-09-19T19:57:26.850Z,45.43
2018-09-19T19:59:54.644Z,46.19
2018-09-19T20:02:22.659Z,46.21
2018-09-19T20:04:50.520Z,45.40
2018-09-19T20:07:18.282Z,45.95
2018-09-19T20:09:46.011Z,45.62
2018-09-19T20:12:13.800Z,46.03
2018-09-19T20:14:41.735Z,46.10
2018-09-19T20:17:09.546Z,46.29
2018-09-19T20:19:37.211Z,46.20
2018-09-19T20:22:07.197Z,45.83
2018-09-19T20:24:34.748Z,45.76
2018-09-19T20:27:03.216Z,45.56
2018-09-19T20:29:30.891Z,45.78
2018-09-19T20:31:58.702Z,45.96
2018-09-19T20:34:26.517Z,45.50
2018-09-19T20:36:54.309Z,46.26
2018-09-19T20:39:22.172Z,45.19
2018-09-19T20:41:49.935Z,46.29
2018-09-19T20:44:17.799Z,45.75
2018-09-19T20:46:45.716Z,46.02
2018-09-19T20:49:13.582Z,46.15
2018-09-19T20:51:41.506Z,45.90
2018-09-19T20:54:09.268Z,45.72
2018-09-19T20:56:36.978Z,45.42
2018-09-19T20:59:05.306Z,46.11
2018-09-19T21:01:33.275Z,46.16
2018-09-19T21:04:01.211Z,46.06
2018-09-19T21:06:28.541Z,46.51
2018-09-19T21:08:56.386Z,45.27
2018-09-19T21:11:24.215Z,46.04
2018-09-19T21:13:52.064Z,45.76
2018-09-19T21:16:20.040Z,45.49
2018-09-19T21:18:47.494Z,45.12
2018-09-19T21:21:16.219Z,45.60
2018-09-19T21:23:43.974Z,45.98
2018-09-19T21:26:12.001Z,45.58
2018-09-19T21:28:39.909Z,45.67
2018-09-19T21:31:07.838Z,45.50
2018-09-19T21:33:35.771Z,45.33
2018-09-19T21:36:04.227Z,45.08
2018-09-19T21:38:31.926Z,45.18
2018-09-19T21:40:59.760Z,45.32
2018-09-19T21:43:27.794Z,45.84
2018-09-19T21:45:55.686Z,45.11
2018-09-19T21:48:23.567Z,45.71
2018-09-19T21:50:51.663Z,45.92
2018-09-19T21:53:19.580Z,45.84
2018-09-19T21:55:47.319Z,45.67
2018-09-19T21:58:14.710Z,45.68
2018-09-19T22:00:44.002Z,45.48
2018-09-19T22:03:11.306Z,45.97
2018-09-19T22:05:39.018Z,46.26
2018-09-19T22:08:06.922Z,46.20
2018-09-19T22:10:34.755Z,46.40
2018-09-19T22:13:02.590Z,46.25
2018-09-19T22:15:30.450Z,46.39
2018-09-19T22:17:58.203Z,46.03
2018-09-19T22:20:25.763Z,45.91
2018-09-19T22:22:54.495Z,45.90
2018-09-19T22:25:21.756Z,45.96
2018-09-19T22:27:49.582Z,46.04
2018-09-19T22:30:17.345Z,46.16
2018-09-19T22:32:44.590Z,45.79
2018-09-19T22:35:12.522Z,47.04
2018-09-19T22:37:40.374Z,46.23
2018-09-19T22:40:08.217Z,46.27
2018-09-19T22:42:36.344Z,46.92
2018-09-19T22:45:04.306Z,46.47
2018-09-19T22:47:32.321Z,46.88
2018-09-19T22:50:00.018Z,47.17
2018-09-19T22:52:27.846Z,46.15
2018-09-19T22:54:55.663Z,46.85
2018-09-19T22:57:23.306Z,47.12
2018-09-19T22:59:50.986Z,47.29
2018-09-19T23:02:18.725Z,46.48
2018-09-19T23:04:46.947Z,46.81
2018-09-19T23:07:14.662Z,47.24
2018-09-19T23:09:42.469Z,47.84
2018-09-19T23:12:10.218Z,47.75
2018-09-19T23:14:37.942Z,47.66
2018-09-19T23:17:06.002Z,47.39
2018-09-19T23:19:33.886Z,47.80
2018-09-19T23:22:01.993Z,47.38
2018-09-19T23:24:29.377Z,47.84
2018-09-19T23:26:57.045Z,47.71
2018-09-19T23:29:25.834Z,46.95
2018-09-19T23:31:53.739Z,47.81
2018-09-19T23:34:21.567Z,47.23
2018-09-19T23:36:49.310Z,47.80
2018-09-19T23:39:17.079Z,47.54
2018-09-19T23:41:45.836Z,47.16
2018-09-19T23:44:13.585Z,47.34
2018-09-19T23:46:41.738Z,48.01
2018-09-19T23:49:09.560Z,47.91
2018-09-19T23:51:37.209Z,47.93
2018-09-19T23:54:04.757Z,48.08
2018-09-19T23:56:32.932Z,48.45
2018-09-19T23:59:00.846Z,48.99
